sensor_id;sensor_type;location;lat;lon;timestamp;pressure;altitude;pressure_sealevel;temperature;humidity
1926;BME280;964;42.606;23.588;2023-03-14T00:00:59;94762.63;;;22.14;19.17
1926;BME280;964;42.606;23.588;2023-03-14T00:03:28;94772.22;;;20.86;20.45
1926;BME280;964;42.606;23.588;2023-03-14T00:05:54;94774.19;;;20.82;20.61
1926;BME280;964;42.606;23.588;2023-03-14T00:08:21;94771.66;;;20.45;20.80
1926;BME280;964;42.606;23.588;2023-03-14T00:10:50;94770.25;;;20.37;21.22
1926;BME280;964;42.606;23.588;2023-03-14T00:13:16;94767.81;;;19.85;21.35
1926;BME280;964;42.606;23.588;2023-03-14T00:15:43;94755.19;;;20.66;20.98
1926;BME280;964;42.606;23.588;2023-03-14T00:18:11;94761.25;;;20.17;21.24
1926;BME280;964;42.606;23.588;2023-03-14T00:20:38;94748.22;;;20.15;21.13
1926;BME280;964;42.606;23.588;2023-03-14T00:23:04;94749.06;;;19.41;22.08
1926;BME280;964;42.606;23.588;2023-03-14T00:25:31;94733.38;;;20.34;21.21
1926;BME280;964;42.606;23.588;2023-03-14T00:27:57;94725.34;;;20.30;21.30
1926;BME280;964;42.606;23.588;2023-03-14T00:30:24;94727.78;;;18.24;23.35
1926;BME280;964;42.606;23.588;2023-03-14T00:32:51;94713.81;;;18.50;22.36
1926;BME280;964;42.606;23.588;2023-03-14T00:35:19;94719.72;;;18.27;23.17
1926;BME280;964;42.606;23.588;2023-03-14T00:37:46;94706.91;;;18.49;23.08
1926;BME280;964;42.606;23.588;2023-03-14T00:40:13;94696.97;;;18.46;23.56
1926;BME280;964;42.606;23.588;2023-03-14T00:42:40;94693.44;;;17.97;23.83
1926;BME280;964;42.606;23.588;2023-03-14T00:45:08;94687.25;;;18.07;23.67
1926;BME280;964;42.606;23.588;2023-03-14T00:47:35;94689.44;;;18.27;23.91
1926;BME280;964;42.606;23.588;2023-03-14T00:50:05;94680.66;;;18.23;23.79
1926;BME280;964;42.606;23.588;2023-03-14T00:52:33;94671.16;;;18.63;23.69
1926;BME280;964;42.606;23.588;2023-03-14T00:55:00;94670.97;;;18.39;23.15
1926;BME280;964;42.606;23.588;2023-03-14T00:57:26;94673.16;;;18.55;23.42
1926;BME280;964;42.606;23.588;2023-03-14T00:59:53;94665.69;;;18.29;23.38
1926;BME280;964;42.606;23.588;2023-03-14T01:02:20;94668.28;;;18.84;23.31
1926;BME280;964;42.606;23.588;2023-03-14T01:04:47;94663.13;;;18.63;23.52
1926;BME280;964;42.606;23.588;2023-03-14T01:07:14;94680.44;;;17.99;23.94
1926;BME280;964;42.606;23.588;2023-03-14T01:09:42;94671.81;;;18.26;23.44
1926;BME280;964;42.606;23.588;2023-03-14T01:12:09;94673.78;;;19.48;22.63
1926;BME280;964;42.606;23.588;2023-03-14T01:14:36;94672.31;;;18.61;23.04
1926;BME280;964;42.606;23.588;2023-03-14T01:17:02;94660.97;;;19.25;22.96
1926;BME280;964;42.606;23.588;2023-03-14T01:19:29;94662.81;;;19.66;22.49
1926;BME280;964;42.606;23.588;2023-03-14T01:21:56;94646.75;;;21.09;21.12
1926;BME280;964;42.606;23.588;2023-03-14T01:24:23;94656.28;;;20.47;21.32
1926;BME280;964;42.606;23.588;2023-03-14T01:26:51;94653.81;;;20.06;21.95
1926;BME280;964;42.606;23.588;2023-03-14T01:29:18;94649.50;;;19.85;22.18
1926;BME280;964;42.606;23.588;2023-03-14T01:31:44;94657.28;;;19.12;22.48
1926;BME280;964;42.606;23.588;2023-03-14T01:34:11;94654.31;;;18.99;23.52
1926;BME280;964;42.606;23.588;2023-03-14T01:36:38;94650.25;;;18.40;24.14
1926;BME280;964;42.606;23.588;2023-03-14T01:39:04;94636.63;;;19.70;22.55
1926;BME280;964;42.606;23.588;2023-03-14T01:41:33;94636.16;;;18.73;23.05
1926;BME280;964;42.606;23.588;2023-03-14T01:44:01;94641.88;;;18.31;23.97
1926;BME280;964;42.606;23.588;2023-03-14T01:46:34;94630.53;;;18.12;23.81
1926;BME280;964;42.606;23.588;2023-03-14T01:49:07;94627.44;;;18.18;24.17
1926;BME280;964;42.606;23.588;2023-03-14T01:51:41;94622.94;;;18.00;23.84
1926;BME280;964;42.606;23.588;2023-03-14T01:54:12;94618.53;;;19.09;22.82
1926;BME280;964;42.606;23.588;2023-03-14T01:56:43;94614.31;;;19.99;21.95
1926;BME280;964;42.606;23.588;2023-03-14T01:59:12;94604.91;;;19.57;21.57
1926;BME280;964;42.606;23.588;2023-03-14T02:01:42;94616.31;;;19.04;22.73
1926;BME280;964;42.606;23.588;2023-03-14T02:04:10;94614.66;;;18.36;23.83
1926;BME280;964;42.606;23.588;2023-03-14T02:06:46;94616.13;;;18.85;22.57
1926;BME280;964;42.606;23.588;2023-03-14T02:09:15;94604.13;;;21.03;20.98
1926;BME280;964;42.606;23.588;2023-03-14T02:11:43;94610.56;;;20.67;21.04
1926;BME280;964;42.606;23.588;2023-03-14T02:14:19;94617.50;;;19.64;21.67
1926;BME280;964;42.606;23.588;2023-03-14T02:16:50;94629.56;;;19.19;22.91
1926;BME280;964;42.606;23.588;2023-03-14T02:19:21;94620.69;;;19.82;21.47
1926;BME280;964;42.606;23.588;2023-03-14T02:21:56;94626.03;;;19.59;22.69
1926;BME280;964;42.606;23.588;2023-03-14T02:24:29;94626.75;;;20.17;22.19
1926;BME280;964;42.606;23.588;2023-03-14T02:27:11;94626.53;;;19.13;22.66
1926;BME280;964;42.606;23.588;2023-03-14T02:29:42;94623.38;;;19.22;22.66
1926;BME280;964;42.606;23.588;2023-03-14T02:32:12;94631.66;;;19.04;22.70
1926;BME280;964;42.606;23.588;2023-03-14T02:34:40;94624.31;;;19.99;22.00
1926;BME280;964;42.606;23.588;2023-03-14T02:37:08;94620.44;;;20.73;21.61
1926;BME280;964;42.606;23.588;2023-03-14T02:39:38;94617.25;;;20.35;21.73
1926;BME280;964;42.606;23.588;2023-03-14T02:42:05;94617.84;;;20.46;21.74
1926;BME280;964;42.606;23.588;2023-03-14T02:44:33;94616.31;;;20.19;21.80
1926;BME280;964;42.606;23.588;2023-03-14T02:47:01;94608.78;;;19.83;22.21
1926;BME280;964;42.606;23.588;2023-03-14T02:49:29;94607.00;;;20.00;21.85
1926;BME280;964;42.606;23.588;2023-03-14T02:51:58;94604.84;;;19.31;22.49
1926;BME280;964;42.606;23.588;2023-03-14T02:54:25;94601.13;;;20.78;21.33
1926;BME280;964;42.606;23.588;2023-03-14T02:56:51;94599.41;;;20.45;21.51
1926;BME280;964;42.606;23.588;2023-03-14T02:59:18;94595.28;;;20.14;21.84
1926;BME280;964;42.606;23.588;2023-03-14T03:01:46;94598.84;;;19.80;22.11
1926;BME280;964;42.606;23.588;2023-03-14T03:04:13;94600.78;;;20.30;21.60
1926;BME280;964;42.606;23.588;2023-03-14T03:06:39;94605.69;;;19.24;22.93
1926;BME280;964;42.606;23.588;2023-03-14T03:09:06;94611.94;;;21.18;20.84
1926;BME280;964;42.606;23.588;2023-03-14T03:11:33;94606.41;;;21.25;20.54
1926;BME280;964;42.606;23.588;2023-03-14T03:13:59;94605.47;;;20.92;20.90
1926;BME280;964;42.606;23.588;2023-03-14T03:16:26;94607.78;;;20.93;21.20
1926;BME280;964;42.606;23.588;2023-03-14T03:18:54;94609.00;;;20.69;21.38
1926;BME280;964;42.606;23.588;2023-03-14T03:21:21;94613.88;;;20.74;21.22
1926;BME280;964;42.606;23.588;2023-03-14T03:23:49;94616.31;;;20.88;21.11
1926;BME280;964;42.606;23.588;2023-03-14T03:26:16;94624.56;;;20.08;22.04
1926;BME280;964;42.606;23.588;2023-03-14T03:28:43;94627.31;;;20.31;21.72
1926;BME280;964;42.606;23.588;2023-03-14T03:31:10;94630.75;;;20.55;21.62
1926;BME280;964;42.606;23.588;2023-03-14T03:33:37;94620.22;;;20.41;21.28
1926;BME280;964;42.606;23.588;2023-03-14T03:36:06;94623.50;;;19.75;22.46
1926;BME280;964;42.606;23.588;2023-03-14T03:38:33;94610.88;;;19.99;22.09
1926;BME280;964;42.606;23.588;2023-03-14T03:41:02;94608.69;;;20.40;21.87
1926;BME280;964;42.606;23.588;2023-03-14T03:43:29;94609.47;;;20.41;21.47
1926;BME280;964;42.606;23.588;2023-03-14T03:45:56;94617.84;;;20.46;21.81
1926;BME280;964;42.606;23.588;2023-03-14T03:48:23;94612.72;;;20.75;21.20
1926;BME280;964;42.606;23.588;2023-03-14T03:50:49;94615.75;;;20.77;21.31
1926;BME280;964;42.606;23.588;2023-03-14T03:53:17;94620.69;;;20.59;21.49
1926;BME280;964;42.606;23.588;2023-03-14T03:55:44;94621.50;;;20.56;21.51
1926;BME280;964;42.606;23.588;2023-03-14T03:58:11;94616.47;;;20.81;21.28
1926;BME280;964;42.606;23.588;2023-03-14T04:00:37;94623.09;;;20.53;21.32
1926;BME280;964;42.606;23.588;2023-03-14T04:03:05;94620.00;;;20.55;21.50
1926;BME280;964;42.606;23.588;2023-03-14T04:05:32;94614.47;;;20.62;21.52
1926;BME280;964;42.606;23.588;2023-03-14T04:07:59;94617.59;;;20.61;21.47
1926;BME280;964;42.606;23.588;2023-03-14T04:10:27;94616.50;;;20.35;21.64
1926;BME280;964;42.606;23.588;2023-03-14T04:12:54;94612.16;;;20.84;21.60
1926;BME280;964;42.606;23.588;2023-03-14T04:15:21;94625.81;;;20.73;21.71
1926;BME280;964;42.606;23.588;2023-03-14T04:17:47;94622.34;;;20.26;22.25
1926;BME280;964;42.606;23.588;2023-03-14T04:20:14;94614.38;;;20.46;22.07
1926;BME280;964;42.606;23.588;2023-03-14T04:22:41;94615.69;;;20.81;21.72
1926;BME280;964;42.606;23.588;2023-03-14T04:25:08;94603.59;;;20.69;21.76
1926;BME280;964;42.606;23.588;2023-03-14T04:27:36;94608.97;;;20.23;22.14
1926;BME280;964;42.606;23.588;2023-03-14T04:30:03;94603.25;;;20.44;22.16
1926;BME280;964;42.606;23.588;2023-03-14T04:32:30;94603.72;;;20.62;21.93
1926;BME280;964;42.606;23.588;2023-03-14T04:34:57;94604.19;;;20.34;22.14
1926;BME280;964;42.606;23.588;2023-03-14T04:37:23;94610.66;;;19.86;23.09
1926;BME280;964;42.606;23.588;2023-03-14T04:39:50;94607.47;;;20.22;23.15
1926;BME280;964;42.606;23.588;2023-03-14T04:42:17;94607.75;;;20.00;22.53
1926;BME280;964;42.606;23.588;2023-03-14T04:44:45;94608.69;;;19.90;22.56
1926;BME280;964;42.606;23.588;2023-03-14T04:47:12;94602.66;;;20.33;22.64
1926;BME280;964;42.606;23.588;2023-03-14T04:49:38;94601.88;;;19.82;22.99
1926;BME280;964;42.606;23.588;2023-03-14T04:52:05;94604.97;;;19.54;23.24
1926;BME280;964;42.606;23.588;2023-03-14T04:54:32;94601.53;;;19.80;23.25
1926;BME280;964;42.606;23.588;2023-03-14T04:56:59;94602.31;;;20.04;22.80
1926;BME280;964;42.606;23.588;2023-03-14T04:59:25;94594.84;;;19.65;23.37
1926;BME280;964;42.606;23.588;2023-03-14T05:01:53;94596.53;;;19.22;24.08
1926;BME280;964;42.606;23.588;2023-03-14T05:04:20;94595.78;;;19.51;23.37
1926;BME280;964;42.606;23.588;2023-03-14T05:06:47;94591.41;;;19.31;23.14
1926;BME280;964;42.606;23.588;2023-03-14T05:09:13;94583.34;;;19.31;23.09
1926;BME280;964;42.606;23.588;2023-03-14T05:11:41;94584.50;;;19.33;23.30
1926;BME280;964;42.606;23.588;2023-03-14T05:14:07;94580.31;;;19.86;22.38
1926;BME280;964;42.606;23.588;2023-03-14T05:16:34;94578.88;;;19.81;22.70
1926;BME280;964;42.606;23.588;2023-03-14T05:19:02;94575.69;;;19.86;22.82
1926;BME280;964;42.606;23.588;2023-03-14T05:21:29;94571.63;;;20.01;22.48
1926;BME280;964;42.606;23.588;2023-03-14T05:23:55;94568.50;;;20.53;22.14
1926;BME280;964;42.606;23.588;2023-03-14T05:26:22;94574.44;;;21.27;21.48
1926;BME280;964;42.606;23.588;2023-03-14T05:28:50;94567.03;;;21.83;21.00
1926;BME280;964;42.606;23.588;2023-03-14T05:31:17;94571.47;;;22.41;20.58
1926;BME280;964;42.606;23.588;2023-03-14T05:33:44;94570.56;;;22.32;20.74
1926;BME280;964;42.606;23.588;2023-03-14T05:36:12;94574.63;;;22.08;20.60
1926;BME280;964;42.606;23.588;2023-03-14T05:38:39;94574.56;;;22.72;20.91
1926;BME280;964;42.606;23.588;2023-03-14T05:41:06;94556.13;;;23.25;19.87
1926;BME280;964;42.606;23.588;2023-03-14T05:43:33;94560.13;;;22.91;19.66
1926;BME280;964;42.606;23.588;2023-03-14T05:45:59;94562.13;;;23.04;19.68
1926;BME280;964;42.606;23.588;2023-03-14T05:48:26;94565.44;;;23.24;19.91
1926;BME280;964;42.606;23.588;2023-03-14T05:50:56;94548.88;;;23.63;19.13
1926;BME280;964;42.606;23.588;2023-03-14T05:53:26;94542.44;;;24.33;18.67
1926;BME280;964;42.606;23.588;2023-03-14T05:55:54;94555.09;;;23.35;19.51
1926;BME280;964;42.606;23.588;2023-03-14T05:58:21;94552.72;;;24.13;18.85
1926;BME280;964;42.606;23.588;2023-03-14T06:00:49;94546.72;;;24.77;18.40
1926;BME280;964;42.606;23.588;2023-03-14T06:03:15;94539.44;;;25.30;18.20
1926;BME280;964;42.606;23.588;2023-03-14T06:05:42;94547.22;;;25.72;17.89
1926;BME280;964;42.606;23.588;2023-03-14T06:08:09;94545.16;;;25.85;17.96
1926;BME280;964;42.606;23.588;2023-03-14T06:10:37;94549.13;;;26.02;17.85
1926;BME280;964;42.606;23.588;2023-03-14T06:13:04;94549.28;;;25.99;17.60
1926;BME280;964;42.606;23.588;2023-03-14T06:15:31;94546.06;;;26.22;17.47
1926;BME280;964;42.606;23.588;2023-03-14T06:17:58;94545.63;;;26.42;17.18
1926;BME280;964;42.606;23.588;2023-03-14T06:20:25;94544.56;;;27.30;16.70
1926;BME280;964;42.606;23.588;2023-03-14T06:22:51;94538.47;;;27.62;16.47
1926;BME280;964;42.606;23.588;2023-03-14T06:25:18;94534.56;;;27.54;16.48
1926;BME280;964;42.606;23.588;2023-03-14T06:27:46;94527.34;;;28.17;16.25
1926;BME280;964;42.606;23.588;2023-03-14T06:30:13;94519.81;;;28.36;16.12
1926;BME280;964;42.606;23.588;2023-03-14T06:32:40;94519.25;;;28.08;16.26
1926;BME280;964;42.606;23.588;2023-03-14T06:35:07;94502.81;;;28.88;15.87
1926;BME280;964;42.606;23.588;2023-03-14T06:37:34;94500.78;;;29.27;15.62
1926;BME280;964;42.606;23.588;2023-03-14T06:40:01;94508.81;;;28.30;16.43
1926;BME280;964;42.606;23.588;2023-03-14T06:42:28;94502.03;;;28.25;16.17
1926;BME280;964;42.606;23.588;2023-03-14T06:44:56;94496.75;;;28.69;15.76
1926;BME280;964;42.606;23.588;2023-03-14T06:47:23;94512.41;;;29.13;15.43
1926;BME280;964;42.606;23.588;2023-03-14T06:49:49;94520.13;;;29.00;16.00
1926;BME280;964;42.606;23.588;2023-03-14T06:52:16;94533.03;;;27.62;16.92
1926;BME280;964;42.606;23.588;2023-03-14T06:54:42;94522.28;;;28.96;15.86
1926;BME280;964;42.606;23.588;2023-03-14T06:57:09;94523.16;;;29.60;15.41
1926;BME280;964;42.606;23.588;2023-03-14T06:59:36;94518.69;;;30.07;15.62
1926;BME280;964;42.606;23.588;2023-03-14T07:02:04;94516.88;;;29.69;16.08
1926;BME280;964;42.606;23.588;2023-03-14T07:04:30;94508.06;;;30.49;15.09
1926;BME280;964;42.606;23.588;2023-03-14T07:06:57;94502.56;;;31.10;15.36
1926;BME280;964;42.606;23.588;2023-03-14T07:09:24;94502.94;;;30.77;15.22
1926;BME280;964;42.606;23.588;2023-03-14T07:11:50;94490.81;;;32.35;14.14
1926;BME280;964;42.606;23.588;2023-03-14T07:14:17;94486.22;;;32.69;14.21
1926;BME280;964;42.606;23.588;2023-03-14T07:16:44;94483.41;;;33.39;13.94
1926;BME280;964;42.606;23.588;2023-03-14T07:19:12;94477.56;;;34.42;13.26
1926;BME280;964;42.606;23.588;2023-03-14T07:21:38;94466.38;;;34.02;13.42
1926;BME280;964;42.606;23.588;2023-03-14T07:24:05;94453.84;;;35.57;12.75
1926;BME280;964;42.606;23.588;2023-03-14T07:26:32;94461.34;;;36.40;11.87
1926;BME280;964;42.606;23.588;2023-03-14T07:28:58;94454.38;;;35.55;12.42
1926;BME280;964;42.606;23.588;2023-03-14T07:31:25;94461.56;;;35.69;12.91
1926;BME280;964;42.606;23.588;2023-03-14T07:33:52;94446.94;;;36.71;11.88
1926;BME280;964;42.606;23.588;2023-03-14T07:36:20;94455.94;;;36.05;11.92
1926;BME280;964;42.606;23.588;2023-03-14T07:38:47;94445.09;;;37.49;11.49
1926;BME280;964;42.606;23.588;2023-03-14T07:41:14;94454.19;;;36.93;12.12
1926;BME280;964;42.606;23.588;2023-03-14T07:43:41;94439.63;;;36.74;12.17
1926;BME280;964;42.606;23.588;2023-03-14T07:46:07;94432.59;;;36.92;12.04
1926;BME280;964;42.606;23.588;2023-03-14T07:48:34;94429.31;;;36.93;11.53
1926;BME280;964;42.606;23.588;2023-03-14T07:51:01;94431.25;;;36.61;12.23
1926;BME280;964;42.606;23.588;2023-03-14T07:53:29;94415.63;;;37.96;11.21
1926;BME280;964;42.606;23.588;2023-03-14T07:55:56;94416.69;;;38.46;11.15
1926;BME280;964;42.606;23.588;2023-03-14T07:58:23;94400.25;;;37.69;11.12
1926;BME280;964;42.606;23.588;2023-03-14T08:00:50;94393.03;;;38.45;11.43
1926;BME280;964;42.606;23.588;2023-03-14T08:03:17;94402.00;;;38.24;11.31
1926;BME280;964;42.606;23.588;2023-03-14T08:05:46;94399.53;;;37.95;11.52
1926;BME280;964;42.606;23.588;2023-03-14T08:08:13;94412.19;;;37.45;11.92
1926;BME280;964;42.606;23.588;2023-03-14T08:10:41;94409.94;;;37.89;11.68
1926;BME280;964;42.606;23.588;2023-03-14T08:13:09;94399.78;;;38.83;10.91
1926;BME280;964;42.606;23.588;2023-03-14T08:15:36;94395.63;;;39.10;10.99
1926;BME280;964;42.606;23.588;2023-03-14T08:18:03;94390.66;;;40.28;10.19
1926;BME280;964;42.606;23.588;2023-03-14T08:20:30;94387.66;;;39.28;10.88
1926;BME280;964;42.606;23.588;2023-03-14T08:22:57;94406.03;;;38.23;10.76
1926;BME280;964;42.606;23.588;2023-03-14T08:25:25;94392.59;;;39.42;10.21
1926;BME280;964;42.606;23.588;2023-03-14T08:27:53;94386.97;;;39.76;10.39
1926;BME280;964;42.606;23.588;2023-03-14T08:30:21;94384.34;;;40.71;9.92
1926;BME280;964;42.606;23.588;2023-03-14T08:32:48;94398.09;;;39.76;10.57
1926;BME280;964;42.606;23.588;2023-03-14T08:35:15;94386.78;;;40.02;10.22
1926;BME280;964;42.606;23.588;2023-03-14T08:37:42;94387.97;;;39.24;10.72
1926;BME280;964;42.606;23.588;2023-03-14T08:40:10;94384.34;;;39.99;10.68
1926;BME280;964;42.606;23.588;2023-03-14T08:42:38;94386.00;;;39.94;10.67
1926;BME280;964;42.606;23.588;2023-03-14T08:45:08;94382.66;;;39.47;11.19
1926;BME280;964;42.606;23.588;2023-03-14T08:47:35;94386.69;;;39.04;11.35
1926;BME280;964;42.606;23.588;2023-03-14T08:50:02;94381.19;;;38.44;11.46
1926;BME280;964;42.606;23.588;2023-03-14T08:52:29;94378.66;;;39.76;10.70
1926;BME280;964;42.606;23.588;2023-03-14T08:54:56;94375.81;;;39.06;11.18
1926;BME280;964;42.606;23.588;2023-03-14T08:57:23;94370.59;;;39.65;11.06
1926;BME280;964;42.606;23.588;2023-03-14T08:59:52;94370.63;;;40.22;10.92
1926;BME280;964;42.606;23.588;2023-03-14T09:02:21;94353.38;;;41.55;10.67
1926;BME280;964;42.606;23.588;2023-03-14T09:04:49;94358.69;;;41.00;10.49
1926;BME280;964;42.606;23.588;2023-03-14T09:07:16;94353.00;;;40.55;10.72
1926;BME280;964;42.606;23.588;2023-03-14T09:09:43;94351.16;;;40.57;10.66
1926;BME280;964;42.606;23.588;2023-03-14T09:12:10;94347.44;;;39.34;10.68
1926;BME280;964;42.606;23.588;2023-03-14T09:14:37;94343.50;;;41.01;10.66
1926;BME280;964;42.606;23.588;2023-03-14T09:17:04;94337.53;;;40.31;10.58
1926;BME280;964;42.606;23.588;2023-03-14T09:19:32;94333.31;;;41.04;10.22
1926;BME280;964;42.606;23.588;2023-03-14T09:21:59;94322.56;;;41.23;10.30
1926;BME280;964;42.606;23.588;2023-03-14T09:24:26;94309.94;;;42.38;10.20
1926;BME280;964;42.606;23.588;2023-03-14T09:26:52;94307.47;;;41.94;9.49
1926;BME280;964;42.606;23.588;2023-03-14T09:29:20;94307.59;;;42.59;10.04
1926;BME280;964;42.606;23.588;2023-03-14T09:31:47;94291.94;;;42.71;9.97
1926;BME280;964;42.606;23.588;2023-03-14T09:34:14;94293.03;;;42.76;9.70
1926;BME280;964;42.606;23.588;2023-03-14T09:36:42;94276.59;;;43.37;9.48
1926;BME280;964;42.606;23.588;2023-03-14T09:39:10;94272.88;;;43.76;10.22
1926;BME280;964;42.606;23.588;2023-03-14T09:41:38;94288.91;;;39.74;10.48
1926;BME280;964;42.606;23.588;2023-03-14T09:44:10;94269.88;;;39.00;11.41
1926;BME280;964;42.606;23.588;2023-03-14T09:46:38;94277.25;;;37.70;11.55
1926;BME280;964;42.606;23.588;2023-03-14T09:49:14;94275.88;;;36.42;11.87
1926;BME280;964;42.606;23.588;2023-03-14T09:51:46;94276.41;;;37.49;11.89
1926;BME280;964;42.606;23.588;2023-03-14T09:57:05;94272.59;;;36.43;11.71
1926;BME280;964;42.606;23.588;2023-03-14T09:59:34;94262.03;;;36.79;12.12
1926;BME280;964;42.606;23.588;2023-03-14T10:02:02;94259.88;;;36.21;12.11
1926;BME280;964;42.606;23.588;2023-03-14T10:04:40;94265.84;;;35.15;12.13
1926;BME280;964;42.606;23.588;2023-03-14T10:07:13;94254.28;;;34.87;12.61
1926;BME280;964;42.606;23.588;2023-03-14T10:09:43;94249.16;;;34.42;12.42
1926;BME280;964;42.606;23.588;2023-03-14T10:12:10;94243.72;;;34.67;12.92
1926;BME280;964;42.606;23.588;2023-03-14T10:14:44;94237.09;;;34.81;12.63
1926;BME280;964;42.606;23.588;2023-03-14T10:17:13;94237.75;;;34.22;13.01
1926;BME280;964;42.606;23.588;2023-03-14T10:19:51;94236.00;;;34.24;12.23
1926;BME280;964;42.606;23.588;2023-03-14T10:22:20;94227.19;;;33.85;12.72
1926;BME280;964;42.606;23.588;2023-03-14T10:24:51;94208.97;;;33.87;13.32
1926;BME280;964;42.606;23.588;2023-03-14T10:27:20;94219.44;;;33.20;13.55
1926;BME280;964;42.606;23.588;2023-03-14T10:29:53;94208.69;;;33.91;12.93
1926;BME280;964;42.606;23.588;2023-03-14T10:32:21;94199.59;;;33.55;13.05
1926;BME280;964;42.606;23.588;2023-03-14T10:35:08;94194.56;;;34.76;12.55
1926;BME280;964;42.606;23.588;2023-03-14T10:37:48;94186.59;;;34.73;12.61
1926;BME280;964;42.606;23.588;2023-03-14T10:40:18;94190.00;;;33.78;12.99
1926;BME280;964;42.606;23.588;2023-03-14T10:42:45;94189.16;;;34.35;12.84
1926;BME280;964;42.606;23.588;2023-03-14T10:45:34;94182.22;;;33.88;12.94
1926;BME280;964;42.606;23.588;2023-03-14T10:48:22;94174.53;;;34.76;12.27
1926;BME280;964;42.606;23.588;2023-03-14T10:50:54;94167.28;;;34.78;13.47
1926;BME280;964;42.606;23.588;2023-03-14T10:53:23;94158.31;;;33.72;13.78
1926;BME280;964;42.606;23.588;2023-03-14T10:55:50;94149.31;;;34.07;13.51
1926;BME280;964;42.606;23.588;2023-03-14T10:58:19;94151.91;;;34.34;12.91
1926;BME280;964;42.606;23.588;2023-03-14T11:00:51;94143.16;;;33.48;13.56
1926;BME280;964;42.606;23.588;2023-03-14T11:03:19;94137.06;;;34.13;13.38
1926;BME280;964;42.606;23.588;2023-03-14T11:05:50;94120.97;;;35.44;12.37
1926;BME280;964;42.606;23.588;2023-03-14T11:08:20;94130.97;;;33.38;12.99
1926;BME280;964;42.606;23.588;2023-03-14T11:10:54;94121.72;;;34.53;12.51
1926;BME280;964;42.606;23.588;2023-03-14T11:13:25;94106.53;;;34.71;12.88
1926;BME280;964;42.606;23.588;2023-03-14T11:15:59;94106.84;;;34.37;12.95
1926;BME280;964;42.606;23.588;2023-03-14T11:21:27;94094.69;;;32.99;13.59
1926;BME280;964;42.606;23.588;2023-03-14T11:24:09;94077.47;;;34.21;13.56
1926;BME280;964;42.606;23.588;2023-03-14T11:26:49;94062.09;;;35.04;12.87
1926;BME280;964;42.606;23.588;2023-03-14T11:29:21;94058.50;;;35.09;12.58
1926;BME280;964;42.606;23.588;2023-03-14T11:31:54;94053.13;;;35.22;12.67
1926;BME280;964;42.606;23.588;2023-03-14T11:34:27;94043.94;;;35.14;12.70
1926;BME280;964;42.606;23.588;2023-03-14T11:36:59;94036.97;;;36.41;11.95
1926;BME280;964;42.606;23.588;2023-03-14T11:39:35;94038.56;;;35.03;12.76
1926;BME280;964;42.606;23.588;2023-03-14T11:42:11;94037.97;;;33.89;12.54
1926;BME280;964;42.606;23.588;2023-03-14T11:44:40;94031.47;;;34.89;12.84
1926;BME280;964;42.606;23.588;2023-03-14T11:47:13;94028.06;;;34.34;12.66
1926;BME280;964;42.606;23.588;2023-03-14T11:49:45;94033.56;;;33.39;12.73
1926;BME280;964;42.606;23.588;2023-03-14T11:52:19;94031.13;;;34.01;12.36
1926;BME280;964;42.606;23.588;2023-03-14T11:54:50;94016.38;;;34.28;12.69
1926;BME280;964;42.606;23.588;2023-03-14T11:57:20;94012.34;;;34.78;12.74
1926;BME280;964;42.606;23.588;2023-03-14T11:59:52;94002.91;;;35.80;12.26
1926;BME280;964;42.606;23.588;2023-03-14T12:02:25;94011.53;;;34.59;11.99
1926;BME280;964;42.606;23.588;2023-03-14T12:05:12;94008.53;;;33.48;12.32
1926;BME280;964;42.606;23.588;2023-03-14T12:08:01;94003.25;;;33.86;12.51
1926;BME280;964;42.606;23.588;2023-03-14T12:13:57;93996.00;;;32.71;13.43
1926;BME280;964;42.606;23.588;2023-03-14T12:16:35;93966.81;;;36.49;11.31
1926;BME280;964;42.606;23.588;2023-03-14T12:21:58;93974.50;;;34.11;11.95
1926;BME280;964;42.606;23.588;2023-03-14T12:24:29;93975.69;;;34.45;12.34
1926;BME280;964;42.606;23.588;2023-03-14T12:26:58;93950.75;;;35.95;11.86
1926;BME280;964;42.606;23.588;2023-03-14T12:29:27;93957.41;;;34.67;12.04
1926;BME280;964;42.606;23.588;2023-03-14T12:32:20;93951.63;;;34.89;12.02
1926;BME280;964;42.606;23.588;2023-03-14T12:34:48;93953.97;;;35.35;12.46
1926;BME280;964;42.606;23.588;2023-03-14T12:37:21;93948.19;;;35.84;11.76
1926;BME280;964;42.606;23.588;2023-03-14T12:40:04;93936.09;;;35.87;12.01
1926;BME280;964;42.606;23.588;2023-03-14T12:42:43;93938.44;;;35.51;11.83
1926;BME280;964;42.606;23.588;2023-03-14T12:45:23;93933.19;;;35.34;11.91
1926;BME280;964;42.606;23.588;2023-03-14T12:47:52;93940.94;;;34.42;12.05
1926;BME280;964;42.606;23.588;2023-03-14T12:50:35;93936.50;;;34.15;11.94
1926;BME280;964;42.606;23.588;2023-03-14T12:53:27;93921.25;;;36.29;11.64
1926;BME280;964;42.606;23.588;2023-03-14T12:56:03;93927.31;;;35.88;11.42
1926;BME280;964;42.606;23.588;2023-03-14T12:58:33;93932.75;;;34.13;12.00
1926;BME280;964;42.606;23.588;2023-03-14T13:01:06;93916.06;;;35.55;11.79
1926;BME280;964;42.606;23.588;2023-03-14T13:03:45;93923.44;;;35.33;11.58
1926;BME280;964;42.606;23.588;2023-03-14T13:06:12;93917.06;;;33.83;12.07
1926;BME280;964;42.606;23.588;2023-03-14T13:08:40;93921.22;;;34.38;11.91
1926;BME280;964;42.606;23.588;2023-03-14T13:11:10;93912.44;;;35.33;11.97
1926;BME280;964;42.606;23.588;2023-03-14T13:13:42;93905.34;;;36.22;12.14
1926;BME280;964;42.606;23.588;2023-03-14T13:16:16;93905.13;;;35.81;11.09
1926;BME280;964;42.606;23.588;2023-03-14T13:18:45;93887.81;;;36.59;10.93
1926;BME280;964;42.606;23.588;2023-03-14T13:21:14;93882.97;;;36.86;11.87
1926;BME280;964;42.606;23.588;2023-03-14T13:23:54;93891.94;;;34.60;11.70
1926;BME280;964;42.606;23.588;2023-03-14T13:26:23;93882.56;;;35.37;12.37
1926;BME280;964;42.606;23.588;2023-03-14T13:28:50;93887.53;;;33.60;12.11
1926;BME280;964;42.606;23.588;2023-03-14T13:31:22;93881.91;;;33.22;12.52
1926;BME280;964;42.606;23.588;2023-03-14T13:33:59;93890.84;;;31.55;13.35
1926;BME280;964;42.606;23.588;2023-03-14T13:36:26;93887.25;;;31.99;13.26
1926;BME280;964;42.606;23.588;2023-03-14T13:38:57;93887.13;;;31.03;13.53
1926;BME280;964;42.606;23.588;2023-03-14T13:41:25;93874.63;;;31.80;13.79
1926;BME280;964;42.606;23.588;2023-03-14T13:44:01;93858.09;;;33.84;13.21